sensor_id;sensor_type;location;lat;lon;timestamp;P1;durP1;ratioP1;P2;durP2;ratioP2
4808;SDS011;2418;49.930;8.606;2023-07-09T00:02:05;4.30;;;3.70;;
4808;SDS011;2418;49.930;8.606;2023-07-09T00:04:31;4.38;;;3.50;;
4808;SDS011;2418;49.930;8.606;2023-07-09T00:06:59;4.10;;;3.80;;
4808;SDS011;2418;49.930;8.606;2023-07-09T00:09:26;5.05;;;3.80;;
4808;SDS011;2418;49.930;8.606;2023-07-09T00:11:52;4.22;;;3.85;;
4808;SDS011;2418;49.930;8.606;2023-07-09T00:14:18;5.82;;;4.10;;
4808;SDS011;2418;49.930;8.606;2023-07-09T00:16:44;4.00;;;3.70;;
4808;SDS011;2418;49.930;8.606;2023-07-09T00:19:16;6.40;;;3.97;;
4808;SDS011;2418;49.930;8.606;2023-07-09T00:21:42;7.10;;;4.30;;
4808;SDS011;2418;49.930;8.606;2023-07-09T00:24:10;5.22;;;4.00;;
4808;SDS011;2418;49.930;8.606;2023-07-09T00:26:36;4.90;;;3.80;;
4808;SDS011;2418;49.930;8.606;2023-07-09T00:29:03;5.20;;;3.80;;
4808;SDS011;2418;49.930;8.606;2023-07-09T00:31:29;4.00;;;3.70;;
4808;SDS011;2418;49.930;8.606;2023-07-09T00:33:55;5.20;;;4.10;;
4808;SDS011;2418;49.930;8.606;2023-07-09T00:36:30;5.72;;;3.55;;
4808;SDS011;2418;49.930;8.606;2023-07-09T00:38:57;4.00;;;3.70;;
4808;SDS011;2418;49.930;8.606;2023-07-09T00:41:24;4.43;;;4.03;;
4808;SDS011;2418;49.930;8.606;2023-07-09T00:43:51;9.23;;;4.72;;
4808;SDS011;2418;49.930;8.606;2023-07-09T00:48:43;4.78;;;4.13;;
4808;SDS011;2418;49.930;8.606;2023-07-09T00:51:13;4.70;;;4.30;;
4808;SDS011;2418;49.930;8.606;2023-07-09T00:53:40;4.50;;;4.10;;
4808;SDS011;2418;49.930;8.606;2023-07-09T00:56:11;4.45;;;4.05;;
4808;SDS011;2418;49.930;8.606;2023-07-09T00:58:39;5.10;;;4.15;;
4808;SDS011;2418;49.930;8.606;2023-07-09T01:01:08;4.68;;;4.07;;
4808;SDS011;2418;49.930;8.606;2023-07-09T01:03:37;5.03;;;4.30;;
4808;SDS011;2418;49.930;8.606;2023-07-09T01:06:07;7.00;;;4.40;;
4808;SDS011;2418;49.930;8.606;2023-07-09T01:08:34;4.88;;;3.95;;
4808;SDS011;2418;49.930;8.606;2023-07-09T01:11:00;6.07;;;4.28;;
4808;SDS011;2418;49.930;8.606;2023-07-09T01:13:26;4.97;;;4.60;;
4808;SDS011;2418;49.930;8.606;2023-07-09T01:15:53;8.90;;;4.53;;
4808;SDS011;2418;49.930;8.606;2023-07-09T01:18:20;4.80;;;4.40;;
4808;SDS011;2418;49.930;8.606;2023-07-09T01:20:46;10.23;;;4.60;;
4808;SDS011;2418;49.930;8.606;2023-07-09T01:23:12;4.88;;;4.35;;
4808;SDS011;2418;49.930;8.606;2023-07-09T01:25:42;5.28;;;4.10;;
4808;SDS011;2418;49.930;8.606;2023-07-09T01:28:09;4.30;;;3.90;;
4808;SDS011;2418;49.930;8.606;2023-07-09T01:30:36;5.88;;;4.20;;
4808;SDS011;2418;49.930;8.606;2023-07-09T01:33:03;4.50;;;4.10;;
4808;SDS011;2418;49.930;8.606;2023-07-09T01:35:31;5.43;;;4.53;;
4808;SDS011;2418;49.930;8.606;2023-07-09T01:37:58;4.32;;;4.03;;
4808;SDS011;2418;49.930;8.606;2023-07-09T01:40:25;6.45;;;4.80;;
4808;SDS011;2418;49.930;8.606;2023-07-09T01:42:52;4.07;;;3.78;;
4808;SDS011;2418;49.930;8.606;2023-07-09T01:45:20;5.03;;;4.40;;
4808;SDS011;2418;49.930;8.606;2023-07-09T01:47:47;7.60;;;5.20;;
4808;SDS011;2418;49.930;8.606;2023-07-09T01:50:13;4.20;;;4.00;;
4808;SDS011;2418;49.930;8.606;2023-07-09T01:52:41;4.82;;;4.32;;
4808;SDS011;2418;49.930;8.606;2023-07-09T01:55:09;7.50;;;4.55;;
4808;SDS011;2418;49.930;8.606;2023-07-09T01:57:35;9.00;;;4.70;;
4808;SDS011;2418;49.930;8.606;2023-07-09T02:00:05;4.55;;;4.15;;
4808;SDS011;2418;49.930;8.606;2023-07-09T02:02:35;4.82;;;4.35;;
4808;SDS011;2418;49.930;8.606;2023-07-09T02:05:03;6.13;;;4.90;;
4808;SDS011;2418;49.930;8.606;2023-07-09T02:07:29;5.27;;;4.77;;
4808;SDS011;2418;49.930;8.606;2023-07-09T02:09:55;4.72;;;4.05;;
4808;SDS011;2418;49.930;8.606;2023-07-09T02:12:21;4.30;;;3.90;;
4808;SDS011;2418;49.930;8.606;2023-07-09T02:14:47;7.50;;;4.45;;
4808;SDS011;2418;49.930;8.606;2023-07-09T02:17:14;6.55;;;4.75;;
4808;SDS011;2418;49.930;8.606;2023-07-09T02:19:40;7.20;;;5.05;;
4808;SDS011;2418;49.930;8.606;2023-07-09T02:22:06;7.63;;;4.70;;
4808;SDS011;2418;49.930;8.606;2023-07-09T02:24:32;5.50;;;5.10;;
4808;SDS011;2418;49.930;8.606;2023-07-09T02:26:59;4.83;;;4.33;;
4808;SDS011;2418;49.930;8.606;2023-07-09T02:29:26;5.53;;;4.70;;
4808;SDS011;2418;49.930;8.606;2023-07-09T02:31:55;7.00;;;4.50;;
4808;SDS011;2418;49.930;8.606;2023-07-09T02:34:22;7.68;;;4.53;;
4808;SDS011;2418;49.930;8.606;2023-07-09T02:36:51;7.43;;;4.72;;
4808;SDS011;2418;49.930;8.606;2023-07-09T02:39:17;5.85;;;4.40;;
4808;SDS011;2418;49.930;8.606;2023-07-09T02:41:44;9.40;;;4.60;;
4808;SDS011;2418;49.930;8.606;2023-07-09T02:44:10;11.45;;;5.78;;
4808;SDS011;2418;49.930;8.606;2023-07-09T02:46:36;5.30;;;4.80;;
4808;SDS011;2418;49.930;8.606;2023-07-09T02:49:06;10.57;;;4.93;;
4808;SDS011;2418;49.930;8.606;2023-07-09T02:51:32;6.40;;;4.73;;
4808;SDS011;2418;49.930;8.606;2023-07-09T02:53:59;15.48;;;5.20;;
4808;SDS011;2418;49.930;8.606;2023-07-09T02:56:26;7.60;;;4.40;;
4808;SDS011;2418;49.930;8.606;2023-07-09T02:58:53;7.00;;;4.70;;
4808;SDS011;2418;49.930;8.606;2023-07-09T03:01:19;8.23;;;4.68;;
4808;SDS011;2418;49.930;8.606;2023-07-09T03:03:49;8.00;;;4.13;;
4808;SDS011;2418;49.930;8.606;2023-07-09T03:06:16;12.13;;;5.25;;
4808;SDS011;2418;49.930;8.606;2023-07-09T03:08:42;8.27;;;5.10;;
4808;SDS011;2418;49.930;8.606;2023-07-09T03:11:11;5.35;;;4.90;;
4808;SDS011;2418;49.930;8.606;2023-07-09T03:13:37;6.32;;;4.82;;
4808;SDS011;2418;49.930;8.606;2023-07-09T03:16:03;5.05;;;4.65;;
4808;SDS011;2418;49.930;8.606;2023-07-09T03:18:30;5.70;;;4.90;;
4808;SDS011;2418;49.930;8.606;2023-07-09T03:20:56;5.97;;;4.93;;
4808;SDS011;2418;49.930;8.606;2023-07-09T03:23:22;5.80;;;5.07;;
4808;SDS011;2418;49.930;8.606;2023-07-09T03:25:48;9.57;;;4.43;;
4808;SDS011;2418;49.930;8.606;2023-07-09T03:28:14;9.00;;;4.60;;
4808;SDS011;2418;49.930;8.606;2023-07-09T03:30:41;7.38;;;5.03;;
4808;SDS011;2418;49.930;8.606;2023-07-09T03:33:07;8.43;;;4.88;;
4808;SDS011;2418;49.930;8.606;2023-07-09T03:35:33;6.18;;;5.10;;
4808;SDS011;2418;49.930;8.606;2023-07-09T03:37:59;6.20;;;5.03;;
4808;SDS011;2418;49.930;8.606;2023-07-09T03:40:26;6.22;;;5.10;;
4808;SDS011;2418;49.930;8.606;2023-07-09T03:42:51;9.98;;;5.70;;
4808;SDS011;2418;49.930;8.606;2023-07-09T03:45:17;6.05;;;5.10;;
4808;SDS011;2418;49.930;8.606;2023-07-09T03:47:43;6.75;;;4.75;;
4808;SDS011;2418;49.930;8.606;2023-07-09T03:50:09;9.00;;;5.57;;
4808;SDS011;2418;49.930;8.606;2023-07-09T03:52:36;8.00;;;4.97;;
4808;SDS011;2418;49.930;8.606;2023-07-09T03:55:02;5.45;;;4.78;;
4808;SDS011;2418;49.930;8.606;2023-07-09T03:57:32;5.20;;;4.50;;
4808;SDS011;2418;49.930;8.606;2023-07-09T03:59:58;5.15;;;4.65;;
4808;SDS011;2418;49.930;8.606;2023-07-09T04:02:24;5.15;;;4.65;;
4808;SDS011;2418;49.930;8.606;2023-07-09T04:04:50;5.50;;;5.07;;
4808;SDS011;2418;49.930;8.606;2023-07-09T04:07:16;7.30;;;5.18;;
4808;SDS011;2418;49.930;8.606;2023-07-09T04:09:42;9.10;;;4.80;;
4808;SDS011;2418;49.930;8.606;2023-07-09T04:12:09;6.28;;;4.50;;
4808;SDS011;2418;49.930;8.606;2023-07-09T04:14:35;5.35;;;4.90;;
4808;SDS011;2418;49.930;8.606;2023-07-09T04:17:01;8.15;;;4.82;;
4808;SDS011;2418;49.930;8.606;2023-07-09T04:19:28;7.80;;;4.93;;
4808;SDS011;2418;49.930;8.606;2023-07-09T04:21:54;5.90;;;4.90;;
4808;SDS011;2418;49.930;8.606;2023-07-09T04:24:20;6.47;;;4.30;;
4808;SDS011;2418;49.930;8.606;2023-07-09T04:26:46;17.85;;;5.00;;
4808;SDS011;2418;49.930;8.606;2023-07-09T04:29:12;8.88;;;5.00;;
4808;SDS011;2418;49.930;8.606;2023-07-09T04:31:39;7.95;;;5.60;;
4808;SDS011;2418;49.930;8.606;2023-07-09T04:34:05;5.93;;;4.80;;
4808;SDS011;2418;49.930;8.606;2023-07-09T04:36:31;4.83;;;4.63;;
4808;SDS011;2418;49.930;8.606;2023-07-09T04:38:58;8.32;;;5.63;;
4808;SDS011;2418;49.930;8.606;2023-07-09T04:41:24;4.95;;;4.65;;
4808;SDS011;2418;49.930;8.606;2023-07-09T04:43:50;5.47;;;4.60;;
4808;SDS011;2418;49.930;8.606;2023-07-09T04:46:16;6.60;;;5.00;;
4808;SDS011;2418;49.930;8.606;2023-07-09T04:48:42;5.88;;;5.15;;
4808;SDS011;2418;49.930;8.606;2023-07-09T04:51:08;6.68;;;4.97;;
4808;SDS011;2418;49.930;8.606;2023-07-09T04:53:34;4.82;;;4.50;;
4808;SDS011;2418;49.930;8.606;2023-07-09T04:56:01;5.30;;;4.80;;
4808;SDS011;2418;49.930;8.606;2023-07-09T04:58:28;5.15;;;4.75;;
4808;SDS011;2418;49.930;8.606;2023-07-09T05:00:57;7.88;;;5.40;;
4808;SDS011;2418;49.930;8.606;2023-07-09T05:03:23;8.57;;;5.97;;
4808;SDS011;2418;49.930;8.606;2023-07-09T05:05:49;6.97;;;5.15;;
4808;SDS011;2418;49.930;8.606;2023-07-09T05:08:15;6.65;;;4.88;;
4808;SDS011;2418;49.930;8.606;2023-07-09T05:10:42;7.70;;;5.40;;
4808;SDS011;2418;49.930;8.606;2023-07-09T05:13:08;5.38;;;4.63;;
4808;SDS011;2418;49.930;8.606;2023-07-09T05:15:34;10.27;;;5.40;;
4808;SDS011;2418;49.930;8.606;2023-07-09T05:17:59;5.25;;;4.85;;
4808;SDS011;2418;49.930;8.606;2023-07-09T05:20:25;5.00;;;4.50;;
4808;SDS011;2418;49.930;8.606;2023-07-09T05:22:51;10.18;;;5.07;;
4808;SDS011;2418;49.930;8.606;2023-07-09T05:25:17;6.35;;;4.72;;
4808;SDS011;2418;49.930;8.606;2023-07-09T05:27:43;5.20;;;4.80;;
4808;SDS011;2418;49.930;8.606;2023-07-09T05:30:09;4.90;;;4.60;;
4808;SDS011;2418;49.930;8.606;2023-07-09T05:32:36;5.75;;;5.25;;
4808;SDS011;2418;49.930;8.606;2023-07-09T05:35:02;6.03;;;4.77;;
4808;SDS011;2418;49.930;8.606;2023-07-09T05:37:29;5.15;;;4.70;;
4808;SDS011;2418;49.930;8.606;2023-07-09T05:39:55;10.52;;;6.32;;
4808;SDS011;2418;49.930;8.606;2023-07-09T05:42:21;6.13;;;5.18;;
4808;SDS011;2418;49.930;8.606;2023-07-09T05:44:47;6.20;;;5.18;;
4808;SDS011;2418;49.930;8.606;2023-07-09T05:47:12;5.50;;;5.10;;
4808;SDS011;2418;49.930;8.606;2023-07-09T05:49:38;7.40;;;4.80;;
4808;SDS011;2418;49.930;8.606;2023-07-09T05:52:05;5.83;;;5.43;;
4808;SDS011;2418;49.930;8.606;2023-07-09T05:54:31;6.57;;;5.53;;
4808;SDS011;2418;49.930;8.606;2023-07-09T05:56:57;5.18;;;4.68;;
4808;SDS011;2418;49.930;8.606;2023-07-09T05:59:23;5.63;;;5.13;;
4808;SDS011;2418;49.930;8.606;2023-07-09T06:01:49;6.00;;;5.40;;
4808;SDS011;2418;49.930;8.606;2023-07-09T06:04:15;8.80;;;4.72;;
4808;SDS011;2418;49.930;8.606;2023-07-09T06:06:41;6.32;;;5.50;;
4808;SDS011;2418;49.930;8.606;2023-07-09T06:09:10;5.87;;;4.57;;
4808;SDS011;2418;49.930;8.606;2023-07-09T06:11:36;9.50;;;5.00;;
4808;SDS011;2418;49.930;8.606;2023-07-09T06:14:02;5.63;;;5.15;;
4808;SDS011;2418;49.930;8.606;2023-07-09T06:16:27;5.15;;;4.75;;
4808;SDS011;2418;49.930;8.606;2023-07-09T06:18:54;11.25;;;4.85;;
4808;SDS011;2418;49.930;8.606;2023-07-09T06:21:20;5.50;;;5.10;;
4808;SDS011;2418;49.930;8.606;2023-07-09T06:23:46;4.65;;;4.13;;
4808;SDS011;2418;49.930;8.606;2023-07-09T06:26:12;5.93;;;5.28;;
4808;SDS011;2418;49.930;8.606;2023-07-09T06:28:38;7.15;;;5.05;;
4808;SDS011;2418;49.930;8.606;2023-07-09T06:31:04;6.60;;;4.70;;
4808;SDS011;2418;49.930;8.606;2023-07-09T06:33:30;5.70;;;4.53;;
4808;SDS011;2418;49.930;8.606;2023-07-09T06:35:57;6.72;;;4.90;;
4808;SDS011;2418;49.930;8.606;2023-07-09T06:38:23;5.65;;;5.00;;
4808;SDS011;2418;49.930;8.606;2023-07-09T06:40:50;8.05;;;4.55;;
4808;SDS011;2418;49.930;8.606;2023-07-09T06:43:16;7.07;;;4.60;;
4808;SDS011;2418;49.930;8.606;2023-07-09T06:45:53;8.77;;;4.80;;
4808;SDS011;2418;49.930;8.606;2023-07-09T06:48:19;5.80;;;5.30;;
4808;SDS011;2418;49.930;8.606;2023-07-09T06:50:45;6.60;;;4.32;;
4808;SDS011;2418;49.930;8.606;2023-07-09T06:53:11;6.50;;;5.10;;
4808;SDS011;2418;49.930;8.606;2023-07-09T06:55:38;5.15;;;4.80;;
4808;SDS011;2418;49.930;8.606;2023-07-09T06:58:04;9.93;;;5.45;;
4808;SDS011;2418;49.930;8.606;2023-07-09T07:00:30;8.77;;;5.43;;
4808;SDS011;2418;49.930;8.606;2023-07-09T07:02:56;6.40;;;5.80;;
4808;SDS011;2418;49.930;8.606;2023-07-09T07:05:22;9.03;;;6.20;;
4808;SDS011;2418;49.930;8.606;2023-07-09T07:07:48;9.98;;;6.03;;
4808;SDS011;2418;49.930;8.606;2023-07-09T07:10:14;8.02;;;5.55;;
4808;SDS011;2418;49.930;8.606;2023-07-09T07:12:45;7.60;;;6.55;;
4808;SDS011;2418;49.930;8.606;2023-07-09T07:15:12;7.80;;;5.40;;
4808;SDS011;2418;49.930;8.606;2023-07-09T07:17:39;8.93;;;5.72;;
4808;SDS011;2418;49.930;8.606;2023-07-09T07:20:05;6.40;;;5.80;;
4808;SDS011;2418;49.930;8.606;2023-07-09T07:22:32;12.20;;;5.93;;
4808;SDS011;2418;49.930;8.606;2023-07-09T07:24:58;10.68;;;5.95;;
4808;SDS011;2418;49.930;8.606;2023-07-09T07:27:24;6.60;;;5.65;;
4808;SDS011;2418;49.930;8.606;2023-07-09T07:29:50;6.40;;;5.80;;
4808;SDS011;2418;49.930;8.606;2023-07-09T07:32:17;7.00;;;6.30;;
4808;SDS011;2418;49.930;8.606;2023-07-09T07:34:43;7.97;;;6.22;;
4808;SDS011;2418;49.930;8.606;2023-07-09T07:37:09;7.70;;;6.00;;
4808;SDS011;2418;49.930;8.606;2023-07-09T07:39:35;8.98;;;5.88;;
4808;SDS011;2418;49.930;8.606;2023-07-09T07:42:01;9.82;;;5.95;;
4808;SDS011;2418;49.930;8.606;2023-07-09T07:44:28;7.50;;;5.60;;
4808;SDS011;2418;49.930;8.606;2023-07-09T07:46:54;6.65;;;5.85;;
4808;SDS011;2418;49.930;8.606;2023-07-09T07:49:20;7.65;;;6.03;;
4808;SDS011;2418;49.930;8.606;2023-07-09T07:51:46;14.45;;;6.35;;
4808;SDS011;2418;49.930;8.606;2023-07-09T07:54:13;8.43;;;6.20;;
4808;SDS011;2418;49.930;8.606;2023-07-09T07:56:39;9.65;;;5.15;;
4808;SDS011;2418;49.930;8.606;2023-07-09T07:59:05;7.40;;;4.93;;
4808;SDS011;2418;49.930;8.606;2023-07-09T08:01:31;8.90;;;5.10;;
4808;SDS011;2418;49.930;8.606;2023-07-09T08:04:00;5.10;;;4.60;;
4808;SDS011;2418;49.930;8.606;2023-07-09T08:06:26;6.28;;;4.95;;
4808;SDS011;2418;49.930;8.606;2023-07-09T08:08:52;4.70;;;4.30;;
4808;SDS011;2418;49.930;8.606;2023-07-09T08:11:18;5.38;;;4.88;;
4808;SDS011;2418;49.930;8.606;2023-07-09T08:13:44;6.60;;;4.60;;
4808;SDS011;2418;49.930;8.606;2023-07-09T08:16:10;8.67;;;5.00;;
4808;SDS011;2418;49.930;8.606;2023-07-09T08:18:37;4.60;;;4.20;;
4808;SDS011;2418;49.930;8.606;2023-07-09T08:21:03;4.40;;;4.10;;
4808;SDS011;2418;49.930;8.606;2023-07-09T08:23:29;4.82;;;4.40;;
4808;SDS011;2418;49.930;8.606;2023-07-09T08:25:56;5.65;;;4.75;;
4808;SDS011;2418;49.930;8.606;2023-07-09T08:28:23;6.03;;;4.10;;
4808;SDS011;2418;49.930;8.606;2023-07-09T08:30:51;5.93;;;4.23;;
4808;SDS011;2418;49.930;8.606;2023-07-09T08:33:18;9.13;;;4.80;;
4808;SDS011;2418;49.930;8.606;2023-07-09T08:35:43;4.97;;;4.47;;
4808;SDS011;2418;49.930;8.606;2023-07-09T08:38:09;5.55;;;4.47;;
4808;SDS011;2418;49.930;8.606;2023-07-09T08:40:43;5.45;;;4.35;;
4808;SDS011;2418;49.930;8.606;2023-07-09T08:43:18;5.65;;;4.20;;
4808;SDS011;2418;49.930;8.606;2023-07-09T08:48:32;5.20;;;4.30;;
4808;SDS011;2418;49.930;8.606;2023-07-09T08:51:21;6.80;;;4.80;;
4808;SDS011;2418;49.930;8.606;2023-07-09T08:53:53;9.63;;;5.00;;
4808;SDS011;2418;49.930;8.606;2023-07-09T08:56:22;7.80;;;4.60;;
4808;SDS011;2418;49.930;8.606;2023-07-09T08:58:49;8.05;;;4.40;;
4808;SDS011;2418;49.930;8.606;2023-07-09T09:01:18;5.38;;;4.88;;
4808;SDS011;2418;49.930;8.606;2023-07-09T09:03:47;5.95;;;4.75;;
4808;SDS011;2418;49.930;8.606;2023-07-09T09:06:14;5.47;;;4.43;;
4808;SDS011;2418;49.930;8.606;2023-07-09T09:11:42;4.32;;;4.00;;
4808;SDS011;2418;49.930;8.606;2023-07-09T09:16:40;4.85;;;4.40;;
4808;SDS011;2418;49.930;8.606;2023-07-09T09:19:20;4.82;;;4.43;;
4808;SDS011;2418;49.930;8.606;2023-07-09T09:21:47;6.18;;;4.25;;
4808;SDS011;2418;49.930;8.606;2023-07-09T09:24:23;6.45;;;5.03;;
4808;SDS011;2418;49.930;8.606;2023-07-09T09:26:52;5.25;;;4.47;;
4808;SDS011;2418;49.930;8.606;2023-07-09T09:29:23;6.30;;;4.50;;
4808;SDS011;2418;49.930;8.606;2023-07-09T09:31:50;7.18;;;4.88;;
4808;SDS011;2418;49.930;8.606;2023-07-09T09:34:26;5.25;;;4.75;;
4808;SDS011;2418;49.930;8.606;2023-07-09T09:36:53;7.95;;;4.20;;
4808;SDS011;2418;49.930;8.606;2023-07-09T09:39:22;4.63;;;4.22;;
4808;SDS011;2418;49.930;8.606;2023-07-09T09:41:51;10.70;;;4.32;;
4808;SDS011;2418;49.930;8.606;2023-07-09T09:44:23;6.22;;;4.60;;
4808;SDS011;2418;49.930;8.606;2023-07-09T09:46:49;5.25;;;4.15;;
4808;SDS011;2418;49.930;8.606;2023-07-09T09:49:16;4.63;;;4.22;;
4808;SDS011;2418;49.930;8.606;2023-07-09T09:51:43;5.10;;;4.70;;
4808;SDS011;2418;49.930;8.606;2023-07-09T09:54:20;4.70;;;4.40;;
4808;SDS011;2418;49.930;8.606;2023-07-09T09:56:49;8.30;;;4.50;;
4808;SDS011;2418;49.930;8.606;2023-07-09T09:59:17;5.00;;;4.60;;
4808;SDS011;2418;49.930;8.606;2023-07-09T10:01:43;6.10;;;4.38;;
4808;SDS011;2418;49.930;8.606;2023-07-09T10:04:10;6.50;;;4.10;;
4808;SDS011;2418;49.930;8.606;2023-07-09T10:06:40;4.60;;;4.28;;
4808;SDS011;2418;49.930;8.606;2023-07-09T10:11:46;4.60;;;3.95;;
4808;SDS011;2418;49.930;8.606;2023-07-09T10:16:44;5.20;;;3.90;;
4808;SDS011;2418;49.930;8.606;2023-07-09T10:19:47;3.97;;;3.78;;
4808;SDS011;2418;49.930;8.606;2023-07-09T10:22:06;3.97;;;3.78;;
4808;SDS011;2418;49.930;8.606;2023-07-09T10:27:10;4.40;;;3.80;;
4808;SDS011;2418;49.930;8.606;2023-07-09T10:29:51;4.05;;;3.53;;
4808;SDS011;2418;49.930;8.606;2023-07-09T10:34:54;4.32;;;3.50;;
4808;SDS011;2418;49.930;8.606;2023-07-09T10:40:08;7.13;;;3.90;;
4808;SDS011;2418;49.930;8.606;2023-07-09T10:42:37;5.22;;;3.58;;
4808;SDS011;2418;49.930;8.606;2023-07-09T10:45:10;5.18;;;3.70;;
4808;SDS011;2418;49.930;8.606;2023-07-09T10:47:39;5.90;;;3.20;;
4808;SDS011;2418;49.930;8.606;2023-07-09T10:50:09;3.72;;;3.53;;
4808;SDS011;2418;49.930;8.606;2023-07-09T10:52:39;5.10;;;3.60;;
4808;SDS011;2418;49.930;8.606;2023-07-09T10:55:17;5.07;;;3.38;;
4808;SDS011;2418;49.930;8.606;2023-07-09T10:57:48;6.20;;;3.67;;
4808;SDS011;2418;49.930;8.606;2023-07-09T11:00:18;3.88;;;3.58;;
4808;SDS011;2418;49.930;8.606;2023-07-09T11:02:45;3.83;;;3.53;;
4808;SDS011;2418;49.930;8.606;2023-07-09T11:05:13;3.17;;;2.88;;
4808;SDS011;2418;49.930;8.606;2023-07-09T11:07:43;3.42;;;3.22;;
4808;SDS011;2418;49.930;8.606;2023-07-09T11:13:02;3.40;;;3.30;;
4808;SDS011;2418;49.930;8.606;2023-07-09T11:15:35;3.30;;;3.10;;
4808;SDS011;2418;49.930;8.606;2023-07-09T11:18:03;3.38;;;3.17;;
4808;SDS011;2418;49.930;8.606;2023-07-09T11:20:34;3.20;;;3.10;;
4808;SDS011;2418;49.930;8.606;2023-07-09T11:23:05;3.13;;;2.90;;
4808;SDS011;2418;49.930;8.606;2023-07-09T11:25:40;5.82;;;2.95;;
4808;SDS011;2418;49.930;8.606;2023-07-09T11:28:07;3.42;;;3.22;;
4808;SDS011;2418;49.930;8.606;2023-07-09T11:30:44;5.10;;;3.40;;
4808;SDS011;2418;49.930;8.606;2023-07-09T11:33:25;3.95;;;3.75;;
4808;SDS011;2418;49.930;8.606;2023-07-09T11:35:53;3.63;;;3.13;;
4808;SDS011;2418;49.930;8.606;2023-07-09T11:38:24;3.40;;;3.20;;
4808;SDS011;2418;49.930;8.606;2023-07-09T11:40:52;3.72;;;3.40;;
4808;SDS011;2418;49.930;8.606;2023-07-09T11:43:25;3.40;;;3.10;;
4808;SDS011;2418;49.930;8.606;2023-07-09T11:45:53;5.80;;;3.30;;
4808;SDS011;2418;49.930;8.606;2023-07-09T11:48:25;3.60;;;3.40;;
4808;SDS011;2418;49.930;8.606;2023-07-09T11:50:51;3.70;;;3.20;;
4808;SDS011;2418;49.930;8.606;2023-07-09T11:53:34;3.85;;;3.30;;
4808;SDS011;2418;49.930;8.606;2023-07-09T11:56:01;5.30;;;3.10;;
4808;SDS011;2418;49.930;8.606;2023-07-09T11:58:27;3.47;;;3.27;;
4808;SDS011;2418;49.930;8.606;2023-07-09T12:00:54;4.65;;;3.20;;
4808;SDS011;2418;49.930;8.606;2023-07-09T12:03:23;5.50;;;3.10;;
4808;SDS011;2418;49.930;8.606;2023-07-09T12:06:01;3.10;;;3.00;;
4808;SDS011;2418;49.930;8.606;2023-07-09T12:08:39;3.10;;;3.00;;
4808;SDS011;2418;49.930;8.606;2023-07-09T12:11:06;7.25;;;3.30;;
4808;SDS011;2418;49.930;8.606;2023-07-09T12:13:38;3.60;;;3.40;;
4808;SDS011;2418;49.930;8.606;2023-07-09T12:16:17;3.40;;;3.10;;
4808;SDS011;2418;49.930;8.606;2023-07-09T12:18:44;3.22;;;3.10;;
4808;SDS011;2418;49.930;8.606;2023-07-09T12:21:11;3.10;;;2.90;;
4808;SDS011;2418;49.930;8.606;2023-07-09T12:23:37;3.07;;;2.97;;
4808;SDS011;2418;49.930;8.606;2023-07-09T12:26:05;3.13;;;2.92;;
4808;SDS011;2418;49.930;8.606;2023-07-09T12:28:36;5.90;;;3.13;;
4808;SDS011;2418;49.930;8.606;2023-07-09T12:31:02;3.90;;;3.00;;
4808;SDS011;2418;49.930;8.606;2023-07-09T12:33:28;3.20;;;3.00;;
4808;SDS011;2418;49.930;8.606;2023-07-09T12:35:58;2.95;;;2.72;;
4808;SDS011;2418;49.930;8.606;2023-07-09T12:38:26;3.90;;;3.50;;
4808;SDS011;2418;49.930;8.606;2023-07-09T12:40:52;3.30;;;3.00;;
4808;SDS011;2418;49.930;8.606;2023-07-09T12:43:26;3.30;;;3.10;;
4808;SDS011;2418;49.930;8.606;2023-07-09T12:45:52;4.63;;;3.17;;
4808;SDS011;2418;49.930;8.606;2023-07-09T12:48:21;3.45;;;3.25;;
4808;SDS011;2418;49.930;8.606;2023-07-09T12:50:48;3.10;;;3.00;;
4808;SDS011;2418;49.930;8.606;2023-07-09T12:53:16;2.80;;;2.70;;
4808;SDS011;2418;49.930;8.606;2023-07-09T12:55:43;3.53;;;3.22;;
4808;SDS011;2418;49.930;8.606;2023-07-09T12:58:11;3.25;;;2.95;;
4808;SDS011;2418;49.930;8.606;2023-07-09T13:00:39;5.18;;;3.20;;
4808;SDS011;2418;49.930;8.606;2023-07-09T13:03:11;3.10;;;3.00;;
4808;SDS011;2418;49.930;8.606;2023-07-09T13:05:38;3.95;;;3.75;;
4808;SDS011;2418;49.930;8.606;2023-07-09T13:08:04;3.10;;;3.00;;
4808;SDS011;2418;49.930;8.606;2023-07-09T13:10:31;3.22;;;3.00;;
4808;SDS011;2418;49.930;8.606;2023-07-09T13:13:00;4.23;;;3.20;;
4808;SDS011;2418;49.930;8.606;2023-07-09T13:15:31;3.50;;;3.20;;
4808;SDS011;2418;49.930;8.606;2023-07-09T13:18:04;5.60;;;3.40;;
4808;SDS011;2418;49.930;8.606;2023-07-09T13:20:31;5.40;;;3.75;;
4808;SDS011;2418;49.930;8.606;2023-07-09T13:22:57;3.03;;;2.92;;
4808;SDS011;2418;49.930;8.606;2023-07-09T13:25:24;3.67;;;3.00;;
4808;SDS011;2418;49.930;8.606;2023-07-09T13:27:52;3.25;;;3.05;;
4808;SDS011;2418;49.930;8.606;2023-07-09T13:30:18;4.18;;;3.70;;
4808;SDS011;2418;49.930;8.606;2023-07-09T13:32:46;3.22;;;2.92;;
4808;SDS011;2418;49.930;8.606;2023-07-09T13:35:14;3.00;;;2.80;;
4808;SDS011;2418;49.930;8.606;2023-07-09T13:37:41;3.35;;;2.83;;
4808;SDS011;2418;49.930;8.606;2023-07-09T13:40:09;3.80;;;3.22;;
4808;SDS011;2418;49.930;8.606;2023-07-09T13:42:37;3.10;;;2.90;;
4808;SDS011;2418;49.930;8.606;2023-07-09T13:45:03;3.70;;;3.50;;
4808;SDS011;2418;49.930;8.606;2023-07-09T13:47:30;3.25;;;2.78;;
4808;SDS011;2418;49.930;8.606;2023-07-09T13:49:58;4.00;;;2.97;;
4808;SDS011;2418;49.930;8.606;2023-07-09T13:52:25;4.68;;;2.70;;
4808;SDS011;2418;49.930;8.606;2023-07-09T13:54:51;3.75;;;3.53;;
4808;SDS011;2418;49.930;8.606;2023-07-09T13:57:18;3.70;;;3.13;;
4808;SDS011;2418;49.930;8.606;2023-07-09T13:59:44;3.15;;;2.70;;
4808;SDS011;2418;49.930;8.606;2023-07-09T14:04:49;3.50;;;2.90;;
4808;SDS011;2418;49.930;8.606;2023-07-09T14:07:32;3.42;;;3.13;;
4808;SDS011;2418;49.930;8.606;2023-07-09T14:09:59;5.10;;;3.20;;
4808;SDS011;2418;49.930;8.606;2023-07-09T14:12:26;5.05;;;3.00;;
4808;SDS011;2418;49.930;8.606;2023-07-09T14:14:55;3.42;;;2.90;;
4808;SDS011;2418;49.930;8.606;2023-07-09T14:17:22;2.97;;;2.80;;
4808;SDS011;2418;49.930;8.606;2023-07-09T14:19:52;3.27;;;3.17;;
4808;SDS011;2418;49.930;8.606;2023-07-09T14:22:23;3.03;;;2.83;;
4808;SDS011;2418;49.930;8.606;2023-07-09T14:24:50;7.70;;;2.70;;
4808;SDS011;2418;49.930;8.606;2023-07-09T14:27:16;3.33;;;3.13;;
4808;SDS011;2418;49.930;8.606;2023-07-09T14:29:43;3.40;;;3.20;;
4808;SDS011;2418;49.930;8.606;2023-07-09T14:32:43;2.60;;;2.50;;
4808;SDS011;2418;49.930;8.606;2023-07-09T14:35:03;3.65;;;3.10;;
4808;SDS011;2418;49.930;8.606;2023-07-09T14:37:29;4.22;;;2.92;;
4808;SDS011;2418;49.930;8.606;2023-07-09T14:39:55;3.30;;;3.00;;
4808;SDS011;2418;49.930;8.606;2023-07-09T14:42:21;2.80;;;2.50;;
4808;SDS011;2418;49.930;8.606;2023-07-09T14:44:48;4.78;;;2.90;;
4808;SDS011;2418;49.930;8.606;2023-07-09T14:47:16;3.40;;;3.10;;
4808;SDS011;2418;49.930;8.606;2023-07-09T14:49:42;5.35;;;3.13;;
4808;SDS011;2418;49.930;8.606;2023-07-09T14:52:11;4.60;;;2.80;;
4808;SDS011;2418;49.930;8.606;2023-07-09T14:54:38;2.63;;;2.53;;
4808;SDS011;2418;49.930;8.606;2023-07-09T14:57:07;4.47;;;2.75;;
4808;SDS011;2418;49.930;8.606;2023-07-09T14:59:37;3.72;;;3.42;;
4808;SDS011;2418;49.930;8.606;2023-07-09T15:02:08;3.05;;;2.85;;
4808;SDS011;2418;49.930;8.606;2023-07-09T15:04:37;3.00;;;2.80;;
4808;SDS011;2418;49.930;8.606;2023-07-09T15:07:07;2.50;;;2.40;;
4808;SDS011;2418;49.930;8.606;2023-07-09T15:09:36;6.05;;;2.53;;
4808;SDS011;2418;49.930;8.606;2023-07-09T15:12:03;3.10;;;2.90;;
4808;SDS011;2418;49.930;8.606;2023-07-09T15:14:29;2.53;;;2.33;;
4808;SDS011;2418;49.930;8.606;2023-07-09T15:16:55;4.00;;;2.80;;
4808;SDS011;2418;49.930;8.606;2023-07-09T15:19:21;3.70;;;2.70;;
4808;SDS011;2418;49.930;8.606;2023-07-09T15:21:48;5.07;;;2.53;;
4808;SDS011;2418;49.930;8.606;2023-07-09T15:24:29;2.90;;;2.80;;
4808;SDS011;2418;49.930;8.606;2023-07-09T15:26:56;3.00;;;2.80;;
4808;SDS011;2418;49.930;8.606;2023-07-09T15:29:24;3.08;;;2.70;;
4808;SDS011;2418;49.930;8.606;2023-07-09T15:31:50;3.42;;;2.80;;
4808;SDS011;2418;49.930;8.606;2023-07-09T15:34:16;3.30;;;2.90;;
4808;SDS011;2418;49.930;8.606;2023-07-09T15:36:46;3.00;;;2.80;;
4808;SDS011;2418;49.930;8.606;2023-07-09T15:39:13;3.40;;;3.10;;
4808;SDS011;2418;49.930;8.606;2023-07-09T15:41:39;2.72;;;2.63;;
4808;SDS011;2418;49.930;8.606;2023-07-09T15:44:09;3.20;;;3.00;;
4808;SDS011;2418;49.930;8.606;2023-07-09T15:46:35;3.20;;;3.00;;
4808;SDS011;2418;49.930;8.606;2023-07-09T15:49:01;2.88;;;2.75;;